Time;durP1;ratioP1;P1;durP2;ratioP2;P2;SDS_P1;SDS_P2;PMS_P1;PMS_P2;Temp;Humidity;BMP_temperature;BMP_pressure;BME280_temperature;BME280_humidity;BME280_pressure;Samples;Min_cycle;Max_cycle;Signal;HPM_P1;HPM_P2
2023/07/22 00:00:44;;;;;;;6.80;4.07;;;19.20;1.00;;;;;;5004800;28;20178;-74
2023/07/22 00:03:10;;;;;;;20.73;4.77;;;19.30;1.00;;;;;;5005350;28;20199;-74
2023/07/22 00:05:35;;;;;;;4.90;3.73;;;19.30;1.00;;;;;;5008414;28;20877;-74
2023/07/22 00:08:01;;;;;;;4.50;3.97;;;19.30;1.00;;;;;;5008448;28;20186;-74
2023/07/22 00:10:26;;;;;;;6.30;4.33;;;19.30;1.00;;;;;;5008733;28;20618;-74
2023/07/22 00:12:52;;;;;;;5.80;4.30;;;19.30;1.00;;;;;;5006341;28;20249;-74
2023/07/22 00:15:17;;;;;;;6.70;3.93;;;19.30;1.00;;;;;;5008785;28;20198;-74
2023/07/22 00:17:43;;;;;;;7.30;4.10;;;19.30;1.00;;;;;;5009274;28;20690;-74
2023/07/22 00:20:14;;;;;;;6.33;3.73;;;19.30;1.00;;;;;;5010122;28;20179;-74
2023/07/22 00:22:39;;;;;;;7.23;3.93;;;19.40;1.00;;;;;;5009567;28;20650;-74
2023/07/22 00:25:07;;;;;;;6.63;3.40;;;19.40;1.00;;;;;;5007765;28;20513;-74
2023/07/22 00:27:33;;;;;;;7.73;3.53;;;19.40;1.00;;;;;;5007921;28;20241;-74
2023/07/22 00:29:58;;;;;;;5.30;4.00;;;19.40;1.00;;;;;;5008677;28;20441;-74
2023/07/22 00:32:24;;;;;;;5.27;3.77;;;19.50;1.00;;;;;;5005043;28;20213;-74
2023/07/22 00:34:50;;;;;;;4.73;3.60;;;19.40;1.00;;;;;;5007636;28;20688;-73
2023/07/22 00:37:16;;;;;;;5.17;4.00;;;19.40;1.00;;;;;;5009214;28;20171;-75
2023/07/22 00:39:42;;;;;;;13.43;4.63;;;19.30;1.00;;;;;;5008958;28;20420;-74
2023/07/22 00:42:08;;;;;;;5.67;3.90;;;19.20;1.00;;;;;;5001055;28;20225;-74
2023/07/22 00:44:33;;;;;;;6.33;3.83;;;19.20;1.00;;;;;;5007362;28;20256;-73
2023/07/22 00:46:59;;;;;;;4.97;4.07;;;19.20;1.00;;;;;;5008128;28;20209;-74
2023/07/22 00:49:27;;;;;;;5.73;4.03;;;19.20;1.00;;;;;;5009262;28;20190;-74
2023/07/22 00:51:52;;;;;;;7.67;4.10;;;19.10;1.00;;;;;;5007218;28;20675;-74
2023/07/22 00:54:18;;;;;;;5.20;3.63;;;19.00;1.00;;;;;;5007680;28;20461;-74
2023/07/22 00:56:44;;;;;;;5.60;3.90;;;19.00;1.00;;;;;;5008291;28;20233;-75
2023/07/22 00:59:10;;;;;;;6.53;3.70;;;19.00;1.00;;;;;;5004949;28;20721;-74
2023/07/22 01:01:35;;;;;;;4.57;3.63;;;19.00;1.00;;;;;;5012092;28;20541;-74
2023/07/22 01:04:01;;;;;;;5.80;3.70;;;19.00;1.00;;;;;;5013558;28;20198;-74
2023/07/22 01:06:29;;;;;;;5.80;3.80;;;18.90;1.00;;;;;;5014909;28;20657;-74
2023/07/22 01:08:57;;;;;;;6.33;3.90;;;18.80;1.00;;;;;;5013584;28;20194;-74
2023/07/22 01:11:23;;;;;;;5.30;4.20;;;18.70;1.00;;;;;;5015454;28;20744;-74
2023/07/22 01:13:49;;;;;;;6.53;3.77;;;18.70;1.00;;;;;;5012415;28;21085;-73
2023/07/22 01:16:15;;;;;;;5.13;3.80;;;18.70;1.00;;;;;;5014430;28;20530;-74
2023/07/22 01:18:41;;;;;;;11.50;4.53;;;18.70;1.00;;;;;;5014118;28;20197;-74
2023/07/22 01:21:08;;;;;;;5.10;3.97;;;18.80;1.00;;;;;;5014817;28;20174;-74
2023/07/22 01:23:34;;;;;;;4.90;4.20;;;18.60;1.00;;;;;;5015109;28;20563;-74
2023/07/22 01:26:00;;;;;;;6.20;4.63;;;18.50;1.00;;;;;;5013252;28;20571;-74
2023/07/22 01:28:26;;;;;;;7.50;4.23;;;18.50;1.00;;;;;;5013975;28;20456;-75
2023/07/22 01:30:52;;;;;;;7.63;4.60;;;18.30;1.00;;;;;;5015125;28;21038;-73
2023/07/22 01:33:18;;;;;;;6.57;4.50;;;18.30;1.00;;;;;;5011466;28;20676;-74
2023/07/22 01:35:43;;;;;;;7.40;4.80;;;18.20;1.00;;;;;;5010898;28;20511;-74
2023/07/22 01:38:09;;;;;;;6.10;4.50;;;19.30;1.00;;;;;;5014413;28;20648;-75
2023/07/22 01:40:34;;;;;;;9.23;4.47;;;18.10;1.00;;;;;;5013186;28;20182;-74
2023/07/22 01:43:00;;;;;;;9.67;4.60;;;18.00;1.00;;;;;;5014704;28;20228;-74
2023/07/22 01:45:25;;;;;;;5.27;4.60;;;17.90;1.00;;;;;;5012028;28;20220;-75
2023/07/22 01:47:51;;;;;;;6.83;4.40;;;18.00;1.00;;;;;;5010677;28;20186;-74
2023/07/22 01:50:18;;;;;;;5.50;4.20;;;18.00;1.00;;;;;;5014250;28;20182;-74
2023/07/22 01:52:44;;;;;;;6.97;4.37;;;18.00;1.00;;;;;;5013874;28;20627;-73
2023/07/22 01:55:10;;;;;;;6.37;4.20;;;18.10;1.00;;;;;;5012655;28;20492;-74
2023/07/22 01:57:36;;;;;;;4.67;3.80;;;18.10;1.00;;;;;;5012911;28;20189;-74
2023/07/22 02:00:05;;;;;;;7.30;4.07;;;18.20;1.00;;;;;;5014667;28;20437;-74
2023/07/22 02:02:30;;;;;;;4.30;3.83;;;18.30;1.00;;;;;;5013438;28;20198;-74
2023/07/22 02:04:56;;;;;;;5.20;4.20;;;18.40;1.00;;;;;;5010922;28;20452;-73
2023/07/22 02:07:21;;;;;;;6.13;4.30;;;18.40;1.00;;;;;;5015223;28;20213;-74
2023/07/22 02:09:47;;;;;;;5.33;3.87;;;18.40;1.00;;;;;;5014011;28;20556;-73
2023/07/22 02:12:12;;;;;;;6.40;3.90;;;18.60;1.00;;;;;;5009052;28;20474;-73
2023/07/22 02:14:38;;;;;;;6.80;4.60;;;18.60;1.00;;;;;;5010389;28;20688;-74
2023/07/22 02:17:03;;;;;;;5.33;3.90;;;18.60;1.00;;;;;;5009006;28;20185;-74
2023/07/22 02:19:29;;;;;;;6.30;3.80;;;18.60;1.00;;;;;;5009133;28;20194;-73
2023/07/22 02:21:54;;;;;;;5.90;3.50;;;18.70;1.00;;;;;;5010510;28;20280;-74
2023/07/22 02:24:20;;;;;;;5.53;3.90;;;18.70;1.00;;;;;;5009560;28;20213;-74
2023/07/22 02:26:46;;;;;;;5.67;4.00;;;18.70;1.00;;;;;;5009544;28;20584;-73
2023/07/22 02:29:12;;;;;;;5.70;3.87;;;18.70;1.00;;;;;;5009755;28;20265;-74
2023/07/22 02:31:38;;;;;;;4.60;3.83;;;18.80;1.00;;;;;;5008639;28;20191;-74
2023/07/22 02:34:03;;;;;;;4.70;4.00;;;18.70;1.00;;;;;;5007026;28;20485;-74
2023/07/22 02:36:29;;;;;;;5.30;4.00;;;18.70;1.00;;;;;;5010083;28;20214;-74
2023/07/22 02:38:54;;;;;;;5.33;4.00;;;18.60;1.00;;;;;;5008042;28;20179;-72
2023/07/22 02:41:21;;;;;;;5.63;3.50;;;18.60;1.00;;;;;;5008738;28;20285;-74
2023/07/22 02:43:47;;;;;;;4.43;3.70;;;18.50;1.00;;;;;;5009235;28;20228;-74
2023/07/22 02:46:12;;;;;;;4.53;3.57;;;18.60;1.00;;;;;;5009686;28;20955;-73
2023/07/22 02:48:39;;;;;;;4.80;3.80;;;18.50;1.00;;;;;;5007944;28;20193;-74
2023/07/22 02:51:05;;;;;;;4.80;3.97;;;18.50;1.00;;;;;;5010290;28;20601;-74
2023/07/22 02:53:32;;;;;;;5.80;3.87;;;18.60;1.00;;;;;;5009648;28;20988;-74
2023/07/22 02:55:58;;;;;;;6.53;4.53;;;18.60;1.00;;;;;;5008935;28;20465;-74
2023/07/22 02:58:24;;;;;;;4.37;3.30;;;18.70;1.00;;;;;;5008183;28;20828;-75
2023/07/22 03:00:49;;;;;;;4.90;3.77;;;18.70;1.00;;;;;;5008716;28;20429;-74
2023/07/22 03:03:15;;;;;;;5.40;4.10;;;18.80;1.00;;;;;;5007894;28;20199;-73
2023/07/22 03:05:40;;;;;;;6.57;4.20;;;18.90;1.00;;;;;;5007985;28;20182;-74
2023/07/22 03:08:07;;;;;;;6.50;4.07;;;19.00;1.00;;;;;;5007755;28;20560;-74
2023/07/22 03:10:32;;;;;;;6.57;4.33;;;19.00;1.00;;;;;;5010154;28;20592;-73
2023/07/22 03:12:59;;;;;;;5.93;3.87;;;19.00;1.00;;;;;;5007975;28;20473;-74
2023/07/22 03:15:28;;;;;;;7.13;3.93;;;18.90;1.00;;;;;;5009399;28;20206;-74
2023/07/22 03:17:59;;;;;;;5.30;4.20;;;18.80;1.00;;;;;;5008808;28;20446;-74
2023/07/22 03:20:25;;;;;;;5.30;4.20;;;18.80;1.00;;;;;;5007636;28;20954;-74
2023/07/22 03:22:50;;;;;;;6.30;4.50;;;18.80;1.00;;;;;;5008177;28;20837;-74
2023/07/22 03:25:19;;;;;;;6.10;4.20;;;18.80;1.00;;;;;;5007773;28;20453;-74
2023/07/22 03:27:45;;;;;;;5.87;4.20;;;18.80;1.00;;;;;;5008818;28;20185;-74
2023/07/22 03:30:16;;;;;;;4.80;3.70;;;18.80;1.00;;;;;;5009523;28;20528;-74
2023/07/22 03:32:47;;;;;;;6.63;4.43;;;18.80;1.00;;;;;;5004128;28;20202;-75
2023/07/22 03:35:13;;;;;;;8.00;4.63;;;18.80;1.00;;;;;;5007552;28;20920;-74
2023/07/22 03:37:40;;;;;;;7.83;4.40;;;18.70;1.00;;;;;;5009714;28;20445;-74
2023/07/22 03:40:08;;;;;;;5.40;4.10;;;18.60;1.00;;;;;;5005861;28;20437;-74
2023/07/22 03:42:34;;;;;;;6.40;4.57;;;18.60;1.00;;;;;;5008059;28;20888;-75
2023/07/22 03:45:00;;;;;;;4.97;4.00;;;18.50;1.00;;;;;;5007400;28;20524;-72
2023/07/22 03:47:25;;;;;;;5.67;4.40;;;18.50;1.00;;;;;;5007639;28;20194;-74
2023/07/22 03:49:51;;;;;;;6.13;4.37;;;18.40;1.00;;;;;;5009078;28;20231;-74
2023/07/22 03:52:18;;;;;;;7.93;4.60;;;18.30;1.00;;;;;;5007863;28;20217;-75
2023/07/22 03:54:44;;;;;;;5.40;4.30;;;18.30;1.00;;;;;;5009155;28;20393;-73
2023/07/22 03:57:09;;;;;;;5.77;4.40;;;18.30;1.00;;;;;;5006175;28;20451;-74
2023/07/22 03:59:35;;;;;;;6.77;4.30;;;18.30;1.00;;;;;;5009478;28;20639;-74
2023/07/22 04:02:01;;;;;;;7.67;4.20;;;18.40;1.00;;;;;;5008491;28;20270;-74
2023/07/22 04:04:26;;;;;;;5.93;4.30;;;18.40;1.00;;;;;;5007427;28;20341;-74
2023/07/22 04:06:52;;;;;;;5.20;3.83;;;18.50;1.00;;;;;;5009036;28;20282;-74
2023/07/22 04:09:17;;;;;;;8.83;4.40;;;18.60;1.00;;;;;;5007151;28;20183;-74
2023/07/22 04:11:43;;;;;;;7.87;4.80;;;18.60;1.00;;;;;;5007854;28;20309;-74
2023/07/22 04:14:08;;;;;;;6.70;4.30;;;18.60;1.00;;;;;;5007875;28;20723;-74
2023/07/22 04:16:34;;;;;;;7.47;4.37;;;18.60;1.00;;;;;;5008411;28;20281;-74
2023/07/22 04:18:59;;;;;;;5.57;3.90;;;18.50;1.00;;;;;;5008696;28;20194;-74
2023/07/22 04:21:25;;;;;;;8.63;4.73;;;18.50;1.00;;;;;;5006014;28;20193;-73
2023/07/22 04:23:50;;;;;;;5.00;4.17;;;18.60;1.00;;;;;;5006879;28;20222;-74
2023/07/22 04:26:16;;;;;;;6.40;4.20;;;18.70;1.00;;;;;;5007522;28;20198;-74
2023/07/22 04:28:41;;;;;;;6.23;4.13;;;18.60;1.00;;;;;;5007778;28;20186;-74
2023/07/22 04:31:09;;;;;;;7.30;5.03;;;18.70;1.00;;;;;;5006291;28;20198;-74
2023/07/22 04:33:34;;;;;;;8.67;4.57;;;18.60;1.00;;;;;;4999837;28;20219;-75
2023/07/22 04:36:00;;;;;;;6.23;4.40;;;18.60;1.00;;;;;;5004348;28;20839;-74
2023/07/22 04:38:26;;;;;;;6.43;4.37;;;18.60;1.00;;;;;;5008102;28;20182;-74
2023/07/22 04:40:52;;;;;;;7.50;4.50;;;18.50;1.00;;;;;;5008335;28;20451;-74
2023/07/22 04:43:17;;;;;;;6.20;4.10;;;18.60;1.00;;;;;;5005992;28;20291;-74
2023/07/22 04:45:47;;;;;;;5.93;4.23;;;18.70;1.00;;;;;;5005647;28;20188;-75
2023/07/22 04:48:14;;;;;;;7.10;4.23;;;18.70;1.00;;;;;;5002688;28;20269;-74
2023/07/22 04:50:40;;;;;;;7.23;4.10;;;18.70;1.00;;;;;;5008569;28;20440;-74
2023/07/22 04:53:07;;;;;;;7.33;3.87;;;18.80;1.00;;;;;;5006650;28;20461;-73
2023/07/22 04:55:32;;;;;;;6.83;4.50;;;18.80;1.00;;;;;;5007778;28;20732;-74
2023/07/22 04:57:58;;;;;;;7.40;4.50;;;18.80;1.00;;;;;;5004842;28;20448;-74
2023/07/22 05:00:23;;;;;;;5.30;3.80;;;18.80;1.00;;;;;;5005127;28;20190;-75
2023/07/22 05:02:51;;;;;;;6.20;3.60;;;18.90;1.00;;;;;;5006753;28;20659;-74
2023/07/22 05:05:17;;;;;;;6.33;4.10;;;18.80;1.00;;;;;;5004514;28;20190;-74
2023/07/22 05:07:43;;;;;;;6.03;4.80;;;18.60;1.00;;;;;;5008041;28;20508;-74
2023/07/22 05:10:11;;;;;;;5.20;4.00;;;18.50;1.00;;;;;;5008093;28;20187;-74
2023/07/22 05:12:38;;;;;;;9.43;4.80;;;18.30;1.00;;;;;;5006499;28;20563;-75
2023/07/22 05:15:05;;;;;;;5.50;4.23;;;18.40;1.00;;;;;;5005514;28;20461;-74
2023/07/22 05:17:31;;;;;;;5.67;4.20;;;18.40;1.00;;;;;;5005421;28;20973;-75
2023/07/22 05:19:57;;;;;;;6.13;4.43;;;18.30;1.00;;;;;;5006500;28;20939;-75
2023/07/22 05:22:23;;;;;;;4.90;4.07;;;18.30;1.00;;;;;;5007342;28;20484;-75
2023/07/22 05:24:48;;;;;;;6.50;4.20;;;18.40;1.00;;;;;;5007746;28;20524;-75
2023/07/22 05:27:14;;;;;;;7.90;4.17;;;18.40;1.00;;;;;;5006290;28;20186;-74
2023/07/22 05:29:40;;;;;;;6.13;4.70;;;18.60;1.00;;;;;;5005468;28;20190;-75
2023/07/22 05:32:06;;;;;;;4.83;3.80;;;18.70;1.00;;;;;;5006621;28;20187;-74
2023/07/22 05:34:32;;;;;;;5.00;4.00;;;18.70;1.00;;;;;;5003452;28;20210;-75
2023/07/22 05:36:57;;;;;;;7.37;4.57;;;18.70;1.00;;;;;;5007918;28;20854;-75
2023/07/22 05:39:23;;;;;;;6.67;4.37;;;18.60;1.00;;;;;;5004830;28;20190;-74
2023/07/22 05:41:48;;;;;;;5.33;4.00;;;18.60;1.00;;;;;;5006774;28;20187;-75
2023/07/22 05:44:14;;;;;;;5.03;4.30;;;18.60;1.00;;;;;;5005725;28;20202;-75
2023/07/22 05:46:39;;;;;;;6.20;4.20;;;18.60;1.00;;;;;;5008459;28;20431;-75
2023/07/22 05:49:05;;;;;;;7.17;4.47;;;18.50;1.00;;;;;;5011431;28;20226;-75
2023/07/22 05:51:30;;;;;;;6.97;3.80;;;18.50;1.00;;;;;;5010292;28;20248;-75
2023/07/22 05:53:57;;;;;;;7.30;4.53;;;18.50;1.00;;;;;;5010733;28;20268;-75
2023/07/22 05:56:22;;;;;;;6.40;4.10;;;18.60;1.00;;;;;;5008799;28;20206;-75
2023/07/22 05:58:48;;;;;;;5.43;4.20;;;18.60;1.00;;;;;;5009659;28;20444;-75
2023/07/22 06:01:14;;;;;;;5.00;4.00;;;18.70;1.00;;;;;;5008821;28;20245;-74
2023/07/22 06:03:40;;;;;;;5.47;4.10;;;18.80;1.00;;;;;;5010547;28;20197;-74
2023/07/22 06:06:05;;;;;;;5.30;4.13;;;18.90;1.00;;;;;;5009969;28;20762;-75
2023/07/22 06:08:31;;;;;;;7.70;4.37;;;19.00;1.00;;;;;;5010129;28;20186;-75
2023/07/22 06:10:57;;;;;;;6.17;4.23;;;19.00;1.00;;;;;;5008767;28;20185;-75
2023/07/22 06:13:22;;;;;;;5.57;3.93;;;19.00;1.00;;;;;;5008690;28;20303;-74
2023/07/22 06:15:48;;;;;;;5.83;3.90;;;19.00;1.00;;;;;;5011811;28;20547;-74
2023/07/22 06:18:13;;;;;;;7.30;4.07;;;19.10;1.00;;;;;;5011059;28;20568;-74
2023/07/22 06:20:39;;;;;;;6.00;4.23;;;19.20;1.00;;;;;;5009199;28;20178;-75
2023/07/22 06:23:05;;;;;;;6.13;4.60;;;19.20;1.00;;;;;;5007676;28;20256;-75
2023/07/22 06:25:31;;;;;;;6.00;4.03;;;19.30;1.00;;;;;;5011079;28;20190;-75
2023/07/22 06:27:56;;;;;;;5.40;3.97;;;19.50;1.00;;;;;;5011823;28;20600;-74
2023/07/22 06:30:22;;;;;;;7.03;4.67;;;19.60;1.00;;;;;;5011824;28;20205;-76
2023/07/22 06:32:47;;;;;;;7.50;4.67;;;19.60;1.00;;;;;;5009001;28;20230;-75
2023/07/22 06:35:13;;;;;;;5.73;3.90;;;19.50;1.00;;;;;;5011219;28;20281;-74
2023/07/22 06:37:40;;;;;;;6.83;4.53;;;19.50;1.00;;;;;;5010387;28;20198;-75
2023/07/22 06:40:06;;;;;;;8.00;4.77;;;19.50;1.00;;;;;;5011832;28;20184;-75
2023/07/22 06:42:31;;;;;;;6.40;4.20;;;19.40;1.00;;;;;;5006793;28;21042;-74
2023/07/22 06:44:57;;;;;;;6.43;4.10;;;19.30;1.00;;;;;;5008534;28;20491;-75
2023/07/22 06:47:22;;;;;;;5.50;3.90;;;19.40;1.00;;;;;;5034097;22;20704;-73
2023/07/22 06:49:48;;;;;;;7.90;4.40;;;19.60;1.00;;;;;;5010750;28;20205;-72
2023/07/22 06:52:13;;;;;;;7.07;3.90;;;19.40;1.00;;;;;;5011893;28;20214;-76
2023/07/22 06:54:39;;;;;;;5.93;3.80;;;19.70;1.00;;;;;;5010606;28;20214;-76
2023/07/22 06:57:06;;;;;;;6.70;3.40;;;19.70;1.00;;;;;;5011498;28;20287;-75
2023/07/22 06:59:31;;;;;;;5.73;3.57;;;19.80;1.00;;;;;;4994456;28;20266;-76
2023/07/22 07:01:57;;;;;;;6.10;4.07;;;19.90;1.00;;;;;;5004894;28;21149;-78
2023/07/22 07:04:23;;;;;;;7.73;3.73;;;20.10;1.00;;;;;;5007063;28;20182;-75
2023/07/22 07:06:49;;;;;;;5.73;3.77;;;20.30;1.00;;;;;;5003081;28;20588;-75
2023/07/22 07:09:15;;;;;;;6.30;3.83;;;20.40;1.00;;;;;;5003407;28;20619;-76
2023/07/22 07:11:41;;;;;;;6.00;4.30;;;20.50;1.00;;;;;;5002528;28;20417;-74
2023/07/22 07:14:06;;;;;;;7.40;4.27;;;20.60;1.00;;;;;;4992570;28;20179;-76
2023/07/22 07:16:33;;;;;;;6.07;4.30;;;20.50;1.00;;;;;;4991186;28;20245;-78
2023/07/22 07:19:00;;;;;;;5.50;3.83;;;20.30;1.00;;;;;;4991931;28;20217;-76
2023/07/22 07:21:26;;;;;;;6.97;4.00;;;22.00;1.00;;;;;;5003266;28;20433;-77
2023/07/22 07:23:52;;;;;;;5.73;3.30;;;20.80;1.00;;;;;;4997024;28;20438;-76
2023/07/22 07:26:18;;;;;;;6.40;3.87;;;21.00;1.00;;;;;;4991329;28;20273;-77
2023/07/22 07:28:44;;;;;;;6.60;4.20;;;21.30;1.00;;;;;;5010561;28;20428;-77
2023/07/22 07:31:10;;;;;;;7.40;4.07;;;21.50;1.00;;;;;;5003429;28;20420;-76
2023/07/22 07:33:36;;;;;;;5.23;3.70;;;21.70;1.00;;;;;;5000585;28;20260;-76
2023/07/22 07:36:03;;;;;;;8.60;4.50;;;22.20;1.00;;;;;;4999383;28;20194;-76
2023/07/22 07:38:28;;;;;;;7.40;4.07;;;22.10;1.00;;;;;;4997093;28;20434;-76
2023/07/22 07:40:59;;;;;;;10.40;4.33;;;22.40;1.00;;;;;;5010603;28;20424;-72
2023/07/22 07:43:25;;;;;;;6.13;4.33;;;22.10;1.00;;;;;;4993732;28;20222;-72
2023/07/22 07:46:14;;;;;;;8.10;4.17;;;22.00;1.00;;;;;;4996456;28;20788;-73
2023/07/22 07:48:40;;;;;;;6.50;4.10;;;22.00;1.00;;;;;;4998449;28;20460;-74
2023/07/22 07:51:06;;;;;;;6.10;4.20;;;21.70;1.00;;;;;;4989918;28;20441;-73
2023/07/22 07:53:31;;;;;;;5.63;3.63;;;21.80;1.00;;;;;;5004043;28;20224;-72
2023/07/22 07:55:57;;;;;;;5.63;3.63;;;22.00;1.00;;;;;;4995550;28;20204;-72
2023/07/22 07:58:22;;;;;;;8.70;4.13;;;22.00;1.00;;;;;;4994346;28;20182;-71
2023/07/22 08:00:48;;;;;;;6.17;3.80;;;22.20;1.00;;;;;;4991138;28;20186;-74
2023/07/22 08:03:13;;;;;;;9.10;3.83;;;22.30;1.00;;;;;;4993579;28;20174;-72
2023/07/22 08:05:39;;;;;;;7.80;4.23;;;22.60;1.00;;;;;;5000791;28;20190;-71
2023/07/22 08:08:05;;;;;;;5.80;3.50;;;22.80;1.00;;;;;;4996659;28;20277;-71
2023/07/22 08:10:30;;;;;;;5.00;3.43;;;23.00;1.00;;;;;;4995737;28;21120;-71
2023/07/22 08:12:56;;;;;;;12.07;3.93;;;23.30;1.00;;;;;;5010346;28;20182;-71
2023/07/22 08:15:21;;;;;;;8.40;3.57;;;23.50;1.00;;;;;;5001751;28;20711;-71
2023/07/22 08:17:47;;;;;;;5.53;3.80;;;23.60;1.00;;;;;;4998408;28;20190;-72
2023/07/22 08:20:13;;;;;;;6.47;3.30;;;23.80;1.00;;;;;;4990831;28;20646;-71
2023/07/22 08:22:38;;;;;;;6.80;3.80;;;23.70;1.00;;;;;;5006735;28;20628;-72
2023/07/22 08:25:04;;;;;;;12.57;3.77;;;23.50;1.00;;;;;;5000434;28;20186;-71
2023/07/22 08:27:30;;;;;;;6.50;3.80;;;23.40;1.00;;;;;;5001684;28;20225;-71
2023/07/22 08:29:55;;;;;;;6.23;3.73;;;23.60;1.00;;;;;;5004865;28;20434;-71
2023/07/22 08:32:21;;;;;;;6.50;3.60;;;23.70;1.00;;;;;;4990056;28;20185;-72
2023/07/22 08:34:46;;;;;;;7.20;3.77;;;23.70;1.00;;;;;;4992620;28;20212;-71
2023/07/22 08:37:12;;;;;;;7.03;3.30;;;23.90;1.00;;;;;;5001742;28;20209;-72
2023/07/22 08:39:38;;;;;;;6.03;3.77;;;23.80;1.00;;;;;;5000033;28;20185;-74
2023/07/22 08:42:04;;;;;;;5.37;3.40;;;23.70;1.00;;;;;;4988990;28;20175;-72
2023/07/22 08:44:35;;;;;;;8.00;3.77;;;23.60;1.00;;;;;;5003823;28;20178;-74
2023/07/22 08:47:03;;;;;;;7.00;3.40;;;23.60;1.00;;;;;;5002594;28;20534;-72
2023/07/22 08:49:30;;;;;;;5.33;3.77;;;23.90;1.00;;;;;;5000895;28;20425;-71
2023/07/22 08:51:57;;;;;;;7.93;3.80;;;23.90;1.00;;;;;;4990212;28;20476;-72
2023/07/22 08:54:23;;;;;;;6.07;3.67;;;24.10;1.00;;;;;;5005649;28;20423;-73
2023/07/22 08:56:50;;;;;;;6.47;3.43;;;24.50;1.00;;;;;;5009287;28;20441;-72
2023/07/22 08:59:17;;;;;;;4.73;3.20;;;25.00;1.00;;;;;;4995306;28;20460;-72
2023/07/22 09:01:44;;;;;;;6.57;3.57;;;25.90;1.00;;;;;;5008882;28;20433;-72
2023/07/22 09:04:09;;;;;;;6.53;3.50;;;27.30;1.00;;;;;;5009650;28;20481;-73
2023/07/22 09:06:35;;;;;;;5.07;3.23;;;28.80;1.00;;;;;;5009037;28;20878;-74
2023/07/22 09:09:04;;;;;;;7.53;3.53;;;29.70;1.00;;;;;;5005287;28;20257;-74
2023/07/22 09:11:30;;;;;;;4.72;3.60;;;30.40;1.00;;;;;;5006128;28;20281;-70
2023/07/22 09:13:57;;;;;;;6.78;3.20;;;30.90;1.00;;;;;;4997973;28;20265;-73
2023/07/22 09:16:24;;;;;;;5.10;3.10;;;31.00;1.00;;;;;;5005211;28;20283;-73
2023/07/22 09:18:50;;;;;;;6.65;3.50;;;31.10;1.00;;;;;;4998296;28;20213;-73
2023/07/22 09:21:15;;;;;;;6.32;3.10;;;31.80;1.00;;;;;;4998515;28;20214;-73
2023/07/22 09:23:41;;;;;;;5.22;3.40;;;32.60;1.00;;;;;;4994880;28;20285;-73
2023/07/22 09:26:14;;;;;;;6.28;3.28;;;32.20;1.00;;;;;;5000463;28;20229;-73
2023/07/22 09:28:50;;;;;;;4.10;3.05;;;32.20;1.00;;;;;;5002570;28;20201;-73
2023/07/22 09:31:15;;;;;;;4.70;3.08;;;33.20;1.00;;;;;;4999377;28;20190;-73
2023/07/22 09:33:41;;;;;;;4.80;3.28;;;33.70;1.00;;;;;;4993067;28;20414;-73
2023/07/22 09:36:06;;;;;;;6.20;3.22;;;33.50;1.00;;;;;;4998132;28;20209;-74
2023/07/22 09:38:32;;;;;;;4.75;3.35;;;33.40;1.00;;;;;;5003338;28;20191;-78
2023/07/22 09:40:57;;;;;;;6.43;3.47;;;33.10;1.00;;;;;;5013255;28;20692;-78
2023/07/22 09:43:23;;;;;;;5.18;2.78;;;33.10;1.00;;;;;;5004270;28;20633;-75
2023/07/22 09:45:49;;;;;;;13.30;3.42;;;33.00;1.00;;;;;;4991576;28;20213;-78
2023/07/22 09:48:15;;;;;;;5.13;3.10;;;33.80;1.00;;;;;;4997205;28;20292;-76
2023/07/22 09:50:41;;;;;;;4.38;2.92;;;34.10;1.00;;;;;;5003417;28;20621;-73
2023/07/22 09:53:07;;;;;;;7.85;2.90;;;34.60;1.00;;;;;;4994237;28;20613;-73
2023/07/22 09:55:34;;;;;;;6.93;2.47;;;35.10;1.00;;;;;;4993208;28;20579;-77
2023/07/22 09:58:01;;;;;;;3.80;2.60;;;35.00;1.00;;;;;;4996993;28;20280;-74
2023/07/22 10:00:33;;;;;;;7.22;2.45;;;34.70;1.00;;;;;;4997339;28;20190;-74
2023/07/22 10:03:00;;;;;;;5.45;2.42;;;34.80;1.00;;;;;;5003060;28;20178;-74
2023/07/22 10:05:28;;;;;;;4.63;2.50;;;34.80;1.00;;;;;;4999237;28;20199;-75
2023/07/22 10:07:58;;;;;;;4.18;2.47;;;33.20;1.00;;;;;;4992493;28;22097;-74
2023/07/22 10:10:37;;;;;;;6.60;2.50;;;32.70;1.00;;;;;;5005126;28;20208;-74
2023/07/22 10:13:04;;;;;;;4.18;2.40;;;33.30;1.00;;;;;;4997716;28;21099;-73
2023/07/22 10:15:33;;;;;;;6.10;2.60;;;33.50;1.00;;;;;;5004601;28;20287;-73
2023/07/22 10:17:59;;;;;;;4.95;2.65;;;33.00;1.00;;;;;;4999290;28;20276;-75
2023/07/22 10:20:25;;;;;;;6.75;2.47;;;32.20;1.00;;;;;;5002989;28;20269;-73
2023/07/22 10:22:51;;;;;;;8.70;3.10;;;31.50;1.00;;;;;;4994844;28;20697;-75
2023/07/22 10:25:18;;;;;;;8.23;2.95;;;31.50;1.00;;;;;;4997102;28;20205;-75
2023/07/22 10:27:45;;;;;;;4.88;2.45;;;32.40;1.00;;;;;;4997029;28;20230;-74
2023/07/22 10:30:12;;;;;;;5.72;2.30;;;33.00;1.00;;;;;;5000246;28;20185;-73
2023/07/22 10:32:43;;;;;;;6.10;2.72;;;33.40;1.00;;;;;;5004055;28;20193;-71
2023/07/22 10:35:16;;;;;;;4.80;2.60;;;33.30;1.00;;;;;;4995910;28;20745;-74
2023/07/22 10:37:45;;;;;;;4.82;2.88;;;33.40;1.00;;;;;;5002950;28;20250;-74
2023/07/22 10:40:29;;;;;;;5.18;2.42;;;34.00;1.00;;;;;;4992585;28;20186;-74
2023/07/22 10:43:04;;;;;;;4.75;2.40;;;34.20;1.00;;;;;;4999648;28;20225;-74
2023/07/22 10:45:31;;;;;;;4.53;2.75;;;33.40;1.00;;;;;;4992793;28;20260;-74
2023/07/22 10:48:01;;;;;;;5.72;2.55;;;31.90;1.00;;;;;;4999326;28;20217;-74
2023/07/22 10:50:48;;;;;;;3.80;2.50;;;30.70;1.00;;;;;;4998903;28;20205;-73
2023/07/22 10:53:19;;;;;;;10.20;2.67;;;29.80;1.00;;;;;;4996926;28;20535;-73
2023/07/22 10:56:13;;;;;;;8.07;2.80;;;28.90;1.00;;;;;;5010286;28;20206;-73
2023/07/22 10:58:45;;;;;;;3.92;2.22;;;28.30;1.00;;;;;;4995286;28;20198;-74
2023/07/22 11:01:26;;;;;;;6.40;2.80;;;28.20;1.00;;;;;;4994305;28;20265;-75
2023/07/22 11:04:31;;;;;;;7.10;2.77;;;28.00;1.00;;;;;;4991212;28;20303;-74
2023/07/22 11:07:04;;;;;;;4.10;2.40;;;27.50;1.00;;;;;;4999496;28;20198;-73
2023/07/22 11:09:33;;;;;;;6.17;3.13;;;27.40;1.00;;;;;;4999492;28;20566;-74
2023/07/22 11:12:10;;;;;;;4.10;2.80;;;27.10;1.00;;;;;;5000113;28;20540;-73
2023/07/22 11:15:03;;;;;;;4.03;2.67;;;26.70;1.00;;;;;;5007610;28;20719;-73
2023/07/22 11:17:30;;;;;;;6.43;2.87;;;26.70;1.00;;;;;;4991398;28;20692;-76
2023/07/22 11:19:57;;;;;;;4.80;2.90;;;26.90;1.00;;;;;;4990523;28;20187;-73
2023/07/22 11:22:22;;;;;;;4.57;2.83;;;26.60;1.00;;;;;;5003941;28;20187;-72
2023/07/22 11:24:48;;;;;;;4.50;3.00;;;28.20;1.00;;;;;;5000105;28;20261;-76
2023/07/22 11:27:14;;;;;;;6.57;2.55;;;30.30;1.00;;;;;;5005412;28;20206;-74
2023/07/22 11:29:40;;;;;;;7.53;2.80;;;30.90;1.00;;;;;;4991669;28;20624;-76
2023/07/22 11:32:07;;;;;;;3.53;2.40;;;30.80;1.00;;;;;;4998407;28;20703;-74
2023/07/22 11:34:33;;;;;;;4.22;2.65;;;30.50;1.00;;;;;;4998017;28;20221;-74
2023/07/22 11:36:58;;;;;;;5.80;2.90;;;30.30;1.00;;;;;;5000428;28;20677;-74
2023/07/22 11:39:26;;;;;;;4.90;3.33;;;30.00;1.00;;;;;;5002108;28;20178;-75
2023/07/22 11:41:52;;;;;;;5.90;2.83;;;30.30;1.00;;;;;;5001872;28;20182;-74
2023/07/22 11:44:20;;;;;;;3.92;2.63;;;29.40;1.00;;;;;;4997029;28;20549;-74
2023/07/22 11:46:50;;;;;;;4.90;2.78;;;29.10;1.00;;;;;;4989848;28;20725;-73
2023/07/22 11:49:26;;;;;;;5.70;2.70;;;28.60;1.00;;;;;;5002912;28;20320;-74
2023/07/22 11:52:02;;;;;;;4.83;2.63;;;28.40;1.00;;;;;;5008152;28;20201;-74
2023/07/22 11:54:29;;;;;;;5.93;2.65;;;30.20;1.00;;;;;;4990457;28;20182;-76
2023/07/22 11:56:57;;;;;;;3.30;2.38;;;32.60;1.00;;;;;;4998480;28;20206;-75
2023/07/22 11:59:37;;;;;;;3.85;2.80;;;34.00;1.00;;;;;;4995374;28;20225;-76
2023/07/22 12:02:05;;;;;;;4.32;2.63;;;34.70;1.00;;;;;;5001317;28;20181;-78
2023/07/22 12:04:32;;;;;;;4.97;2.70;;;34.20;1.00;;;;;;4995280;28;20542;-78
2023/07/22 12:06:58;;;;;;;3.90;2.53;;;32.20;1.00;;;;;;4998204;28;20672;-76
2023/07/22 12:09:24;;;;;;;3.53;2.42;;;31.20;1.00;;;;;;5003851;28;20198;-76
2023/07/22 12:11:57;;;;;;;3.92;2.55;;;32.10;1.00;;;;;;4993985;28;20200;-76
2023/07/22 12:14:22;;;;;;;7.68;5.65;;;32.60;1.00;;;;;;4992019;28;20178;-73
2023/07/22 12:16:56;;;;;;;4.35;2.58;;;33.50;1.00;;;;;;4994568;28;20713;-75
2023/07/22 12:19:22;;;;;;;3.70;2.58;;;34.50;1.00;;;;;;4997124;28;20186;-75
2023/07/22 12:21:48;;;;;;;5.18;2.38;;;35.40;1.00;;;;;;4986490;28;20182;-75
2023/07/22 12:24:14;;;;;;;10.70;9.15;;;35.70;1.00;;;;;;4990676;28;20179;-77
2023/07/22 12:26:40;;;;;;;14.32;11.55;;;36.10;1.00;;;;;;4993428;28;20202;-77
2023/07/22 12:29:05;;;;;;;4.78;2.47;;;37.20;1.00;;;;;;4996393;28;20252;-75
2023/07/22 12:31:31;;;;;;;8.00;6.93;;;37.70;1.00;;;;;;5003449;28;20232;-75
2023/07/22 12:33:57;;;;;;;6.28;5.07;;;37.10;1.00;;;;;;4998485;28;20652;-75
2023/07/22 12:36:22;;;;;;;4.72;3.50;;;37.00;1.00;;;;;;4988800;28;20352;-76
2023/07/22 12:38:48;;;;;;;5.78;4.70;;;36.00;1.00;;;;;;4986657;28;20277;-75
2023/07/22 12:41:13;;;;;;;8.75;7.15;;;34.50;1.00;;;;;;4989481;28;20183;-75
2023/07/22 12:43:39;;;;;;;5.03;2.70;;;32.50;1.00;;;;;;4997265;28;20564;-76
2023/07/22 12:46:04;;;;;;;5.55;3.22;;;31.10;1.00;;;;;;4991026;28;20506;-75
2023/07/22 12:48:30;;;;;;;4.57;3.30;;;30.90;1.00;;;;;;5054251;23;20503;-75
2023/07/22 12:50:56;;;;;;;16.33;10.85;;;30.30;1.00;;;;;;5027871;28;20211;-75
2023/07/22 12:53:21;;;;;;;4.93;2.92;;;29.40;1.00;;;;;;5028758;28;20215;-76
2023/07/22 12:55:47;;;;;;;4.40;2.88;;;28.80;1.00;;;;;;5028311;28;20217;-76